createdAt,value
2018-04-28T00:00:58.174Z,0
2018-04-28T00:02:08.407Z,0
2018-04-28T00:03:18.277Z,0
2018-04-28T00:04:28.441Z,0
2018-04-28T00:05:38.372Z,0
2018-04-28T00:06:48.497Z,0
2018-04-28T00:07:58.823Z,0
2018-04-28T00:09:09.099Z,0
2018-04-28T00:10:19.458Z,0
2018-04-28T00:11:29.627Z,0
2018-04-28T00:12:39.515Z,0
2018-04-28T00:13:49.678Z,0
2018-04-28T00:14:59.904Z,0
2018-04-28T00:16:09.506Z,0
2018-04-28T00:17:19.660Z,0
2018-04-28T00:18:29.612Z,0
2018-04-28T00:19:39.997Z,0
2018-04-28T00:20:50.149Z,0
2018-04-28T00:21:59.944Z,0
2018-04-28T00:23:10.088Z,0
2018-04-28T00:24:19.983Z,0
2018-04-28T00:25:30.113Z,0
2018-04-28T00:26:40.243Z,0
2018-04-28T00:27:50.379Z,0
2018-04-28T00:29:00.602Z,0
2018-04-28T00:30:10.865Z,0
2018-04-28T00:31:20.726Z,0
2018-04-28T00:32:30.905Z,0
2018-04-28T00:33:41.042Z,0
2018-04-28T00:34:51.180Z,0
2018-04-28T00:36:01.388Z,0
2018-04-28T00:37:11.629Z,0
2018-04-28T00:38:21.785Z,0
2018-04-28T00:39:31.420Z,0
2018-04-28T00:40:41.552Z,0
2018-04-28T00:41:51.677Z,0
2018-04-28T00:43:01.798Z,0
2018-04-28T00:44:12.005Z,0
2018-04-28T00:45:22.314Z,0
2018-04-28T00:46:32.066Z,0
2018-04-28T00:47:41.853Z,0
2018-04-28T00:48:51.734Z,0
2018-04-28T00:50:01.867Z,0
2018-04-28T00:51:12.103Z,0
2018-04-28T00:52:22.376Z,0
2018-04-28T00:53:32.529Z,0
2018-04-28T00:54:42.666Z,0
2018-04-28T00:55:52.787Z,0
2018-04-28T00:57:02.698Z,0
2018-04-28T00:58:12.866Z,0
2018-04-28T00:59:23.000Z,0
2018-04-28T01:00:33.145Z,0
2018-04-28T01:01:43.355Z,0
2018-04-28T01:02:53.274Z,0
2018-04-28T01:04:03.436Z,0
2018-04-28T01:05:13.590Z,0
2018-04-28T01:06:23.822Z,0
2018-04-28T01:07:33.998Z,0
2018-04-28T01:08:44.275Z,0
2018-04-28T01:09:54.479Z,0
2018-04-28T01:11:04.745Z,0
2018-04-28T01:12:14.604Z,0
2018-04-28T01:13:24.457Z,0
2018-04-28T01:14:34.595Z,0
2018-04-28T01:15:44.811Z,0
2018-04-28T01:16:54.983Z,0
2018-04-28T01:18:05.132Z,0
2018-04-28T01:19:15.250Z,0
2018-04-28T01:20:26.452Z,0
2018-04-28T01:21:36.610Z,0
2018-04-28T01:22:46.877Z,0
2018-04-28T01:23:57.029Z,0
2018-04-28T01:25:07.241Z,0
2018-04-28T01:26:17.029Z,0
2018-04-28T01:27:27.005Z,0
2018-04-28T01:28:37.129Z,0
2018-04-28T01:29:47.274Z,0
2018-04-28T01:30:57.155Z,0
2018-04-28T01:32:07.333Z,0
2018-04-28T01:33:17.200Z,0
2018-04-28T01:34:27.324Z,0
2018-04-28T01:35:37.446Z,0
2018-04-28T01:36:47.642Z,0
2018-04-28T01:37:57.840Z,0
2018-04-28T01:39:08.154Z,0
2018-04-28T01:40:18.307Z,0
2018-04-28T01:41:28.254Z,0
2018-04-28T01:42:38.109Z,0
2018-04-28T01:43:48.012Z,0
2018-04-28T01:44:58.227Z,0
2018-04-28T01:46:08.410Z,0
2018-04-28T01:47:18.693Z,0
2018-04-28T01:48:29.811Z,0
2018-04-28T01:49:40.131Z,0
2018-04-28T01:50:50.337Z,0
2018-04-28T01:52:00.602Z,0
2018-04-28T01:53:10.756Z,0
2018-04-28T01:54:20.976Z,0
2018-04-28T01:55:31.203Z,0
2018-04-28T01:56:41.351Z,0
2018-04-28T01:57:51.649Z,0
2018-04-28T01:59:01.821Z,0
2018-04-28T02:00:12.086Z,0
2018-04-28T02:01:22.066Z,0
2018-04-28T02:02:32.196Z,0
2018-04-28T02:03:42.148Z,0
2018-04-28T02:04:52.268Z,0
2018-04-28T02:06:02.135Z,0
2018-04-28T02:07:12.469Z,0
2018-04-28T02:08:22.614Z,0
2018-04-28T02:09:32.837Z,0
2018-04-28T02:10:43.106Z,0
2018-04-28T02:11:53.256Z,0
2018-04-28T02:13:03.435Z,0
2018-04-28T02:14:13.561Z,0
2018-04-28T02:15:23.682Z,0
2018-04-28T02:16:33.812Z,0
2018-04-28T02:17:43.943Z,0
2018-04-28T02:18:54.061Z,0
2018-04-28T02:20:04.170Z,0
2018-04-28T02:21:14.311Z,0
2018-04-28T02:22:24.174Z,0
2018-04-28T02:23:34.320Z,0
2018-04-28T02:24:44.444Z,0
2018-04-28T02:25:54.598Z,0
2018-04-28T02:27:04.747Z,0
2018-04-28T02:28:15.044Z,0
2018-04-28T02:29:24.643Z,0
2018-04-28T02:30:34.942Z,0
2018-04-28T02:31:45.147Z,0
2018-04-28T02:32:55.399Z,0
2018-04-28T02:34:05.294Z,0
2018-04-28T02:35:15.207Z,0
2018-04-28T02:36:25.477Z,0
2018-04-28T02:37:35.633Z,0
2018-04-28T02:38:45.797Z,0
2018-04-28T02:39:55.827Z,0
2018-04-28T02:41:06.074Z,0
2018-04-28T02:42:15.847Z,0
2018-04-28T02:43:25.989Z,0
2018-04-28T02:44:35.889Z,0
2018-04-28T02:45:46.035Z,0
2018-04-28T02:46:56.181Z,0
2018-04-28T02:48:06.336Z,0
2018-04-28T02:49:16.531Z,0
2018-04-28T02:50:26.760Z,0
2018-04-28T02:51:36.664Z,0
2018-04-28T02:52:46.784Z,0
2018-04-28T02:53:56.935Z,0
2018-04-28T02:55:07.101Z,0
2018-04-28T02:56:17.363Z,0
2018-04-28T02:57:27.544Z,0
2018-04-28T02:58:37.763Z,0
2018-04-28T02:59:47.951Z,0
2018-04-28T03:00:58.099Z,0
2018-04-28T03:02:08.218Z,0
2018-04-28T03:03:18.341Z,0
2018-04-28T03:04:28.495Z,0
2018-04-28T03:05:38.716Z,0
2018-04-28T03:06:48.941Z,0
2018-04-28T03:07:59.125Z,0
2018-04-28T03:09:09.350Z,0
2018-04-28T03:10:19.505Z,0
2018-04-28T03:11:29.682Z,0
2018-04-28T03:12:39.872Z,0
2018-04-28T03:13:49.743Z,0
2018-04-28T03:14:59.898Z,0
2018-04-28T03:16:09.790Z,4
2018-04-28T03:17:19.979Z,4
2018-04-28T03:18:30.136Z,0
2018-04-28T03:19:40.361Z,4
2018-04-28T03:20:50.646Z,4
2018-04-28T03:22:00.829Z,4
2018-04-28T03:23:11.064Z,4
2018-04-28T03:24:21.030Z,8
2018-04-28T03:25:31.055Z,8
2018-04-28T03:26:40.827Z,8
2018-04-28T03:27:50.956Z,8
2018-04-28T03:29:01.136Z,12
2018-04-28T03:30:11.418Z,16
2018-04-28T03:31:21.627Z,16
2018-04-28T03:32:31.776Z,20
2018-04-28T03:33:41.947Z,24
2018-04-28T03:34:52.085Z,28
2018-04-28T03:36:02.187Z,36
2018-04-28T03:37:12.305Z,40
2018-04-28T03:38:22.425Z,44
2018-04-28T03:39:32.558Z,52
2018-04-28T03:40:42.793Z,60
2018-04-28T03:41:52.916Z,68
2018-04-28T03:43:03.047Z,80
2018-04-28T03:44:12.699Z,92
2018-04-28T03:45:22.849Z,100
2018-04-28T03:46:32.999Z,116
2018-04-28T03:47:42.857Z,128
2018-04-28T03:48:53.019Z,148
2018-04-28T03:50:02.928Z,168
2018-04-28T03:51:13.077Z,188
2018-04-28T03:52:22.950Z,208
2018-04-28T03:53:33.368Z,236
2018-04-28T03:54:43.585Z,264
2018-04-28T03:55:53.774Z,300
2018-04-28T03:57:03.687Z,328
2018-04-28T03:58:13.582Z,356
2018-04-28T03:59:23.723Z,380
2018-04-28T04:00:33.852Z,408
2018-04-28T04:01:43.981Z,440
2018-04-28T04:02:54.119Z,476
2018-04-28T04:04:04.301Z,520
2018-04-28T04:05:14.430Z,560
2018-04-28T04:06:24.196Z,600
2018-04-28T04:07:34.361Z,644
2018-04-28T04:08:44.512Z,684
2018-04-28T04:09:54.697Z,724
2018-04-28T04:11:04.916Z,772
2018-04-28T04:12:15.137Z,812
2018-04-28T04:13:24.998Z,852
2018-04-28T04:14:35.143Z,896
2018-04-28T04:15:45.286Z,948
2018-04-28T04:16:55.512Z,1004
2018-04-28T04:18:05.645Z,1064
2018-04-28T04:19:15.868Z,1116
2018-04-28T04:20:25.990Z,1184
2018-04-28T04:21:36.234Z,1224
2018-04-28T04:22:46.714Z,1248
2018-04-28T04:23:56.866Z,1284
2018-04-28T04:25:07.064Z,1328
2018-04-28T04:26:17.205Z,1356
2018-04-28T04:27:27.337Z,1372
2018-04-28T04:28:37.239Z,1372
2018-04-28T04:29:47.378Z,1368
2018-04-28T04:30:57.560Z,1364
2018-04-28T04:32:07.788Z,1368
2018-04-28T04:33:17.966Z,1400
2018-04-28T04:34:28.136Z,1428
2018-04-28T04:35:38.272Z,1432
2018-04-28T04:36:48.396Z,1456
2018-04-28T04:37:58.515Z,1472
2018-04-28T04:39:08.713Z,1504
2018-04-28T04:40:18.876Z,1556
2018-04-28T04:41:29.106Z,1592
2018-04-28T04:42:39.242Z,1616
2018-04-28T04:43:49.394Z,1640
2018-04-28T04:44:59.539Z,1660
2018-04-28T04:46:09.719Z,1660
2018-04-28T04:47:19.862Z,1684
2018-04-28T04:48:30.011Z,1704
2018-04-28T04:49:40.135Z,1788
2018-04-28T04:50:50.272Z,1900
2018-04-28T04:52:00.439Z,1964
2018-04-28T04:53:10.554Z,2108
2018-04-28T04:54:20.713Z,2192
2018-04-28T04:55:30.634Z,2248
2018-04-28T04:56:40.828Z,2264
2018-04-28T04:57:50.956Z,2256
2018-04-28T04:59:01.080Z,2240
2018-04-28T05:00:11.230Z,2264
2018-04-28T05:01:21.374Z,2304
2018-04-28T05:02:31.611Z,2348
2018-04-28T05:03:41.814Z,2384
2018-04-28T05:04:51.949Z,2472
2018-04-28T05:06:02.147Z,2428
2018-04-28T05:07:12.349Z,2416
2018-04-28T05:08:22.474Z,2480
2018-04-28T05:09:32.674Z,2516
2018-04-28T05:10:42.822Z,2484
2018-04-28T05:11:52.948Z,2364
2018-04-28T05:13:03.126Z,2480
2018-04-28T05:14:13.320Z,2580
2018-04-28T05:15:23.585Z,2800
2018-04-28T05:16:33.747Z,2856
2018-04-28T05:17:43.616Z,2920
2018-04-28T05:18:53.761Z,2972
2018-04-28T05:20:03.955Z,2976
2018-04-28T05:21:14.256Z,3108
2018-04-28T05:22:24.425Z,3208
2018-04-28T05:23:34.304Z,3184
2018-04-28T05:24:44.424Z,3260
2018-04-28T05:25:54.579Z,3360
2018-04-28T05:27:04.946Z,3360
2018-04-28T05:28:15.062Z,3504
2018-04-28T05:29:25.193Z,3696
2018-04-28T05:30:35.427Z,3884
2018-04-28T05:31:45.702Z,4000
2018-04-28T05:32:55.456Z,3936
2018-04-28T05:34:05.644Z,3904
2018-04-28T05:35:15.511Z,3812
2018-04-28T05:36:25.792Z,3712
2018-04-28T05:37:35.925Z,3540
2018-04-28T05:38:46.075Z,3528
2018-04-28T05:39:56.284Z,3160
2018-04-28T05:41:06.534Z,3220
2018-04-28T05:42:16.686Z,3220
2018-04-28T05:43:26.952Z,3348
2018-04-28T05:44:37.096Z,3728
2018-04-28T05:45:47.239Z,4140
2018-04-28T05:46:57.372Z,4688
2018-04-28T05:48:07.321Z,5224
2018-04-28T05:49:17.480Z,5444
2018-04-28T05:50:27.378Z,5664
2018-04-28T05:51:37.548Z,5860
2018-04-28T05:52:47.752Z,6144
2018-04-28T05:53:57.980Z,6120
2018-04-28T05:55:08.191Z,5876
2018-04-28T05:56:18.369Z,5772
2018-04-28T05:57:28.262Z,5492
2018-04-28T05:58:38.410Z,5836
2018-04-28T05:59:48.562Z,6168
2018-04-28T06:00:58.719Z,6512
2018-04-28T06:02:08.886Z,6600
2018-04-28T06:03:19.414Z,6540
2018-04-28T06:04:29.646Z,6588
2018-04-28T06:05:39.815Z,6692
2018-04-28T06:06:49.957Z,6644
2018-04-28T06:08:00.142Z,6640
2018-04-28T06:09:10.353Z,6636
2018-04-28T06:10:20.249Z,6564
2018-04-28T06:11:30.119Z,6460
2018-04-28T06:12:41.304Z,6444
2018-04-28T06:13:51.474Z,6208
2018-04-28T06:15:01.624Z,6232
2018-04-28T06:16:11.811Z,6292
2018-04-28T06:17:21.948Z,6312
2018-04-28T06:18:32.123Z,6384
2018-04-28T06:19:42.504Z,6372
2018-04-28T06:20:52.743Z,6572
2018-04-28T06:22:02.879Z,6860
2018-04-28T06:23:14.010Z,7124
2018-04-28T06:24:23.802Z,7164
2018-04-28T06:25:33.674Z,7192
2018-04-28T06:26:43.812Z,7076
2018-04-28T06:27:53.952Z,6912
2018-04-28T06:29:04.140Z,6920
2018-04-28T06:30:14.280Z,6944
2018-04-28T06:31:24.555Z,6576
2018-04-28T06:32:34.733Z,6880
2018-04-28T06:33:44.890Z,7192
2018-04-28T06:34:55.012Z,6876
2018-04-28T06:36:05.151Z,6472
2018-04-28T06:37:15.320Z,6380
2018-04-28T06:38:25.502Z,6488
2018-04-28T06:39:35.401Z,6184
2018-04-28T06:40:45.330Z,5776
2018-04-28T06:41:55.559Z,5412
2018-04-28T06:43:05.680Z,5412
2018-04-28T06:44:15.887Z,5756
2018-04-28T06:45:26.010Z,6168
2018-04-28T06:46:36.133Z,6480
2018-04-28T06:47:46.288Z,6640
2018-04-28T06:48:56.064Z,6848
2018-04-28T06:50:06.188Z,6868
2018-04-28T06:51:16.637Z,6876
2018-04-28T06:52:26.787Z,6848
2018-04-28T06:53:36.943Z,6776
2018-04-28T06:54:47.104Z,6720
2018-04-28T06:55:57.262Z,6772
2018-04-28T06:57:07.510Z,6792
2018-04-28T06:58:17.761Z,6952
2018-04-28T06:59:27.928Z,7372
2018-04-28T07:00:37.738Z,7560
2018-04-28T07:01:47.615Z,7856
2018-04-28T07:02:57.764Z,7860
2018-04-28T07:04:07.907Z,7624
2018-04-28T07:05:18.070Z,7456
2018-04-28T07:06:27.983Z,7260
2018-04-28T07:07:38.168Z,7212
2018-04-28T07:08:47.720Z,7192
2018-04-28T07:09:57.841Z,7156
2018-04-28T07:11:07.993Z,7360
2018-04-28T07:12:18.123Z,7892
2018-04-28T07:13:28.292Z,8320
2018-04-28T07:14:38.427Z,8696
2018-04-28T07:15:48.625Z,8948
2018-04-28T07:16:59.848Z,8904
2018-04-28T07:18:10.068Z,8928
2018-04-28T07:19:20.251Z,9280
2018-04-28T07:20:30.483Z,9076
2018-04-28T07:21:40.683Z,8796
2018-04-28T07:22:50.830Z,8456
2018-04-28T07:24:00.991Z,8152
2018-04-28T07:25:10.863Z,7904
2018-04-28T07:26:20.761Z,7928
2018-04-28T07:27:30.647Z,8008
2018-04-28T07:28:40.781Z,8160
2018-04-28T07:29:50.929Z,8396
2018-04-28T07:31:02.142Z,8660
2018-04-28T07:32:12.363Z,8808
2018-04-28T07:33:22.502Z,8940
2018-04-28T07:34:32.683Z,9376
2018-04-28T07:35:42.879Z,9884
2018-04-28T07:36:53.111Z,10756
2018-04-28T07:38:04.234Z,11212
2018-04-28T07:39:14.480Z,11256
2018-04-28T07:40:24.659Z,11068
2018-04-28T07:41:34.883Z,10724
2018-04-28T07:42:45.126Z,10540
2018-04-28T07:43:55.278Z,10676
2018-04-28T07:45:05.461Z,10824
2018-04-28T07:46:15.636Z,10904
2018-04-28T07:47:25.778Z,11052
2018-04-28T07:48:36.030Z,11292
2018-04-28T07:49:46.196Z,11452
2018-04-28T07:50:56.368Z,11176
2018-04-28T07:52:06.616Z,10964
2018-04-28T07:53:16.226Z,10812
2018-04-28T07:54:26.410Z,10408
2018-04-28T07:55:36.646Z,10252
2018-04-28T07:56:46.926Z,9984
2018-04-28T07:57:56.829Z,10048
2018-04-28T07:59:06.997Z,10400
2018-04-28T08:00:17.350Z,10752
2018-04-28T08:01:27.546Z,10616
2018-04-28T08:02:37.622Z,10844
2018-04-28T08:03:47.872Z,11276
2018-04-28T08:04:58.027Z,11332
2018-04-28T08:06:08.304Z,11436
2018-04-28T08:07:18.444Z,11556
2018-04-28T08:08:28.631Z,11524
2018-04-28T08:09:38.816Z,11992
2018-04-28T08:10:48.993Z,11956
2018-04-28T08:11:59.175Z,11696
2018-04-28T08:13:09.054Z,11264
2018-04-28T08:14:19.361Z,11304
2018-04-28T08:15:29.518Z,11532
2018-04-28T08:16:39.402Z,11692
2018-04-28T08:17:49.574Z,12148
2018-04-28T08:18:59.721Z,12500
2018-04-28T08:20:09.917Z,12736
2018-04-28T08:21:20.790Z,12804
2018-04-28T08:22:30.937Z,12940
2018-04-28T08:23:40.843Z,12652
2018-04-28T08:24:50.971Z,13188
2018-04-28T08:26:01.148Z,13764
2018-04-28T08:27:11.360Z,13876
2018-04-28T08:28:21.685Z,14460
2018-04-28T08:29:31.599Z,14872
2018-04-28T08:30:41.835Z,16224
2018-04-28T08:31:51.851Z,17184
2018-04-28T08:33:02.233Z,18176
2018-04-28T08:34:12.490Z,18720
2018-04-28T08:35:22.279Z,32640
2018-04-28T08:36:32.518Z,42368
2018-04-28T08:37:42.746Z,42752
2018-04-28T08:38:52.930Z,44320
2018-04-28T08:40:04.225Z,49888
2018-04-28T08:41:15.387Z,57024
2018-04-28T08:42:27.055Z,56096
2018-04-28T08:43:37.792Z,69440
2018-04-28T08:44:48.808Z,82880
2018-04-28T08:46:00.084Z,71808
2018-04-28T08:47:10.668Z,71648
2018-04-28T08:48:20.805Z,64192
2018-04-28T08:49:31.005Z,64352
2018-04-28T08:50:41.177Z,58656
2018-04-28T08:51:51.372Z,51872
2018-04-28T08:53:01.522Z,66304
2018-04-28T08:54:11.733Z,68544
2018-04-28T08:55:21.893Z,59168
2018-04-28T08:56:32.067Z,69376
2018-04-28T08:57:42.263Z,79616
2018-04-28T08:58:52.435Z,74176
2018-04-28T09:00:02.731Z,70400
2018-04-28T09:01:12.943Z,65056
2018-04-28T09:02:22.822Z,67424
2018-04-28T09:03:32.722Z,67584
2018-04-28T09:04:42.948Z,64256
2018-04-28T09:05:53.106Z,72640
2018-04-28T09:07:03.361Z,60320
2018-04-28T09:08:13.533Z,63424
2018-04-28T09:09:23.673Z,83136
2018-04-28T09:10:34.153Z,72448
2018-04-28T09:11:45.324Z,80480
2018-04-28T09:12:56.067Z,85760
2018-04-28T09:14:06.071Z,54336
2018-04-28T09:15:16.344Z,51904
2018-04-28T09:16:26.558Z,69120
2018-04-28T09:17:36.355Z,76352
2018-04-28T09:18:46.280Z,87296
2018-04-28T09:19:56.590Z,73504
2018-04-28T09:21:06.771Z,63776
2018-04-28T09:22:16.946Z,78944
2018-04-28T09:23:27.199Z,75552
2018-04-28T09:24:37.364Z,60832
2018-04-28T09:25:47.526Z,60640
2018-04-28T09:26:57.708Z,68768
2018-04-28T09:28:07.801Z,77024
2018-04-28T09:29:17.973Z,78976
2018-04-28T09:30:28.144Z,83744
2018-04-28T09:31:37.815Z,91104
2018-04-28T09:32:47.993Z,87808
2018-04-28T09:33:58.236Z,93632
2018-04-28T09:35:08.668Z,92864
2018-04-28T09:36:20.048Z,74688
2018-04-28T09:37:34.271Z,74432
2018-04-28T09:40:35.032Z,76128
2018-04-28T09:41:45.594Z,69344
2018-04-28T09:42:55.762Z,59392
2018-04-28T09:44:06.913Z,75680
2018-04-28T09:45:17.089Z,97344
2018-04-28T09:46:27.422Z,87520
2018-04-28T09:47:37.733Z,82688
2018-04-28T09:48:47.928Z,93344
2018-04-28T09:49:58.165Z,98496
2018-04-28T09:51:09.556Z,92864
2018-04-28T09:52:19.797Z,93792
2018-04-28T09:53:30.140Z,91328
2018-04-28T09:54:40.371Z,73920
2018-04-28T09:55:50.599Z,83200
2018-04-28T09:57:00.882Z,96384
2018-04-28T09:58:11.060Z,90144
2018-04-28T09:59:21.221Z,17856
2018-04-28T10:00:31.452Z,13384
2018-04-28T10:01:41.716Z,12996
2018-04-28T10:02:52.041Z,54976
2018-04-28T10:04:02.277Z,23584
2018-04-28T10:05:12.258Z,96416
2018-04-28T10:06:22.565Z,39168
2018-04-28T10:07:32.143Z,69728
2018-04-28T10:08:41.965Z,117248
2018-04-28T10:09:52.242Z,29280
2018-04-28T10:11:02.230Z,18016
2018-04-28T10:12:12.425Z,16224
2018-04-28T10:13:22.596Z,14680
2018-04-28T10:14:32.783Z,14484
2018-04-28T10:15:43.648Z,34272
2018-04-28T10:16:53.836Z,111488
2018-04-28T10:18:04.056Z,97184
2018-04-28T10:19:14.241Z,98464
2018-04-28T10:20:24.592Z,67520
2018-04-28T10:21:35.143Z,34464
2018-04-28T10:22:45.324Z,16160
2018-04-28T10:23:56.519Z,107648
2018-04-28T10:25:06.698Z,104064
2018-04-28T10:26:16.499Z,108896
2018-04-28T10:27:26.733Z,103936
2018-04-28T10:28:36.903Z,93536
2018-04-28T10:29:47.119Z,91744
2018-04-28T10:30:57.568Z,97120
2018-04-28T10:32:08.979Z,107744
2018-04-28T10:33:19.198Z,116896
2018-04-28T10:34:29.434Z,107680
2018-04-28T10:35:39.682Z,87360
2018-04-28T10:36:49.682Z,84608
2018-04-28T10:37:59.853Z,101280
2018-04-28T10:39:10.255Z,112480
2018-04-28T10:40:20.480Z,117152
2018-04-28T10:41:30.442Z,104192
2018-04-28T10:42:40.758Z,82400
2018-04-28T10:43:51.200Z,78176
2018-04-28T10:45:01.359Z,86240
2018-04-28T10:46:11.266Z,93760
2018-04-28T10:47:21.435Z,104512
2018-04-28T10:48:31.629Z,110624
2018-04-28T10:49:41.792Z,96512
2018-04-28T10:50:51.795Z,85280
2018-04-28T10:52:01.717Z,92480
2018-04-28T10:53:11.915Z,102688
2018-04-28T10:54:22.181Z,98752
2018-04-28T10:55:32.405Z,88896
2018-04-28T10:56:44.469Z,94560
2018-04-28T10:57:55.707Z,111456
2018-04-28T10:59:05.906Z,104544
2018-04-28T11:00:16.137Z,98368
2018-04-28T11:01:26.348Z,114848
2018-04-28T11:02:36.684Z,111808
2018-04-28T11:03:46.585Z,93472
2018-04-28T11:04:56.994Z,84896
2018-04-28T11:06:07.345Z,81888
2018-04-28T11:07:17.590Z,89184
2018-04-28T11:08:27.747Z,113472
2018-04-28T11:09:37.928Z,117472
2018-04-28T11:10:48.199Z,97376
2018-04-28T11:11:58.459Z,81280
2018-04-28T11:13:08.638Z,76928
2018-04-28T11:14:18.893Z,81504
2018-04-28T11:15:29.112Z,94656
2018-04-28T11:16:39.285Z,105600
2018-04-28T11:17:49.242Z,105600
2018-04-28T11:18:59.436Z,102080
2018-04-28T11:20:09.468Z,91808
2018-04-28T11:21:19.716Z,88800
2018-04-28T11:22:29.956Z,68928
2018-04-28T11:23:40.272Z,69184
2018-04-28T11:24:50.470Z,73792
2018-04-28T11:26:00.909Z,20096
2018-04-28T11:27:12.058Z,27552
2018-04-28T11:28:22.270Z,35456
2018-04-28T11:29:32.489Z,87584
2018-04-28T11:30:42.674Z,85248
2018-04-28T11:31:53.108Z,74560
2018-04-28T11:33:03.244Z,73920
2018-04-28T11:34:13.527Z,83232
2018-04-28T11:35:23.479Z,90784
2018-04-28T11:36:33.732Z,84160
2018-04-28T11:37:43.659Z,70624
2018-04-28T11:38:54.006Z,78688
2018-04-28T11:40:04.249Z,96448
2018-04-28T11:41:14.538Z,94112
2018-04-28T11:42:24.751Z,81504
2018-04-28T11:43:35.065Z,83936
2018-04-28T11:44:45.658Z,84992
2018-04-28T11:45:55.888Z,68192
2018-04-28T11:47:06.075Z,66176
2018-04-28T11:48:15.896Z,83840
2018-04-28T11:49:26.082Z,89184
2018-04-28T11:50:36.325Z,81248
2018-04-28T11:51:46.333Z,90240
2018-04-28T11:52:56.750Z,106528
2018-04-28T11:54:06.969Z,103680
2018-04-28T11:55:17.010Z,80416
2018-04-28T11:56:27.354Z,69728
2018-04-28T11:57:37.548Z,81152
2018-04-28T11:58:47.870Z,90048
2018-04-28T11:59:58.179Z,92032
2018-04-28T12:01:08.385Z,100096
2018-04-28T12:02:18.479Z,105792
2018-04-28T12:03:28.798Z,90656
2018-04-28T12:04:39.024Z,81088
2018-04-28T12:05:49.523Z,93568
2018-04-28T12:06:59.890Z,96576
2018-04-28T12:08:10.103Z,88960
2018-04-28T12:09:20.319Z,100544
2018-04-28T12:10:30.596Z,117312
2018-04-28T12:11:40.794Z,101952
2018-04-28T12:12:50.989Z,73376
2018-04-28T12:14:00.898Z,73408
2018-04-28T12:15:10.530Z,91552
2018-04-28T12:16:20.742Z,102112
2018-04-28T12:17:30.691Z,98240
2018-04-28T12:18:41.133Z,99936
2018-04-28T12:19:51.349Z,114176
2018-04-28T12:21:01.745Z,119072
2018-04-28T12:22:12.010Z,91712
2018-04-28T12:23:22.230Z,86368
2018-04-28T12:24:32.452Z,79488
2018-04-28T12:25:42.692Z,84640
2018-04-28T12:26:52.914Z,94304
2018-04-28T12:28:03.146Z,92416
2018-04-28T12:29:13.349Z,88224
2018-04-28T12:30:23.326Z,100384
2018-04-28T12:31:33.523Z,117856
2018-04-28T12:32:43.399Z,104640
2018-04-28T12:33:53.624Z,70048
2018-04-28T12:35:03.913Z,62368
2018-04-28T12:36:14.081Z,82304
2018-04-28T12:37:24.323Z,99168
2018-04-28T12:38:34.280Z,104224
2018-04-28T12:39:44.650Z,101440
2018-04-28T12:40:54.842Z,91520
2018-04-28T12:42:05.074Z,77760
2018-04-28T12:43:14.996Z,72608
2018-04-28T12:44:25.192Z,77312
2018-04-28T12:45:35.378Z,78624
2018-04-28T12:46:45.303Z,66016
2018-04-28T12:47:56.787Z,47552
2018-04-28T12:49:06.930Z,82432
2018-04-28T12:50:17.138Z,96736
2018-04-28T12:51:27.353Z,87424
2018-04-28T12:52:37.526Z,66656
2018-04-28T12:53:47.788Z,60800
2018-04-28T12:54:57.973Z,68032
2018-04-28T12:56:08.189Z,77408
2018-04-28T12:57:18.128Z,76064
2018-04-28T12:58:28.149Z,64992
2018-04-28T12:59:38.388Z,58464
2018-04-28T13:00:48.610Z,72960
2018-04-28T13:01:58.813Z,85824
2018-04-28T13:03:08.819Z,79008
2018-04-28T13:04:19.007Z,65056
2018-04-28T13:05:29.228Z,67808
2018-04-28T13:06:39.403Z,78432
2018-04-28T13:07:49.433Z,83104
2018-04-28T13:08:59.635Z,81152
2018-04-28T13:10:09.329Z,79232
2018-04-28T13:11:19.586Z,73952
2018-04-28T13:12:29.346Z,50432
2018-04-28T13:13:39.241Z,57312
2018-04-28T13:14:49.404Z,75232
2018-04-28T13:15:59.358Z,86240
2018-04-28T13:17:09.536Z,90432
2018-04-28T13:18:19.686Z,84288
2018-04-28T13:19:29.686Z,65632
2018-04-28T13:20:39.890Z,62400
2018-04-28T13:21:50.064Z,69984
2018-04-28T13:23:00.078Z,66080
2018-04-28T13:24:10.832Z,72672
2018-04-28T13:25:20.997Z,88608
2018-04-28T13:26:31.200Z,90848
2018-04-28T13:27:41.376Z,72640
2018-04-28T13:28:51.555Z,62240
2018-04-28T13:30:01.752Z,67296
2018-04-28T13:31:11.961Z,70912
2018-04-28T13:32:22.138Z,70976
2018-04-28T13:33:32.326Z,81728
2018-04-28T13:34:42.503Z,80544
2018-04-28T13:35:52.312Z,69632
2018-04-28T13:37:02.565Z,70432
2018-04-28T13:38:12.812Z,74592
2018-04-28T13:39:23.005Z,76608
2018-04-28T13:40:33.325Z,68160
2018-04-28T13:41:43.158Z,57152
2018-04-28T13:42:53.366Z,54464
2018-04-28T13:44:03.560Z,57056
2018-04-28T13:45:13.811Z,46432
2018-04-28T13:46:24.008Z,16896
2018-04-28T13:47:34.228Z,15456
2018-04-28T13:48:44.395Z,29856
2018-04-28T13:49:54.563Z,13076
2018-04-28T13:51:04.754Z,11932
2018-04-28T13:52:15.012Z,12316
2018-04-28T13:53:25.337Z,14752
2018-04-28T13:54:35.492Z,16224
2018-04-28T13:55:45.652Z,16544
2018-04-28T13:56:55.813Z,16384
2018-04-28T13:58:06.028Z,16128
2018-04-28T13:59:16.266Z,16704
2018-04-28T14:00:26.175Z,58112
2018-04-28T14:01:36.359Z,65664
2018-04-28T14:02:46.518Z,31808
2018-04-28T14:03:56.752Z,33504
2018-04-28T14:05:07.163Z,60032
2018-04-28T14:06:17.349Z,50848
2018-04-28T14:07:27.516Z,51808
2018-04-28T14:08:37.448Z,53984
2018-04-28T14:09:47.923Z,68544
2018-04-28T14:10:58.111Z,59168
2018-04-28T14:12:08.314Z,56544
2018-04-28T14:13:18.572Z,66656
2018-04-28T14:14:28.755Z,33280
2018-04-28T14:15:38.643Z,19360
2018-04-28T14:16:48.827Z,58208
2018-04-28T14:17:59.013Z,58944
2018-04-28T14:19:09.226Z,59584
2018-04-28T14:20:19.402Z,63360
2018-04-28T14:21:29.720Z,58080
2018-04-28T14:22:40.863Z,32192
2018-04-28T14:23:51.071Z,41376
2018-04-28T14:25:01.027Z,56608
2018-04-28T14:26:11.186Z,54272
2018-04-28T14:27:21.353Z,40928
2018-04-28T14:28:31.502Z,45344
2018-04-28T14:29:41.544Z,56224
2018-04-28T14:30:51.775Z,48800
2018-04-28T14:32:02.030Z,43232
2018-04-28T14:33:12.292Z,53408
2018-04-28T14:34:21.867Z,59808
2018-04-28T14:35:32.104Z,54496
2018-04-28T14:36:42.355Z,54560
2018-04-28T14:37:52.556Z,58112
2018-04-28T14:39:03.800Z,55040
2018-04-28T14:40:13.998Z,52352
2018-04-28T14:41:24.257Z,48192
2018-04-28T14:42:34.470Z,48448
2018-04-28T14:43:44.388Z,52192
2018-04-28T14:44:54.536Z,48416
2018-04-28T14:46:04.443Z,43968
2018-04-28T14:47:14.701Z,52672
2018-04-28T14:48:24.868Z,47872
2018-04-28T14:49:35.029Z,41920
2018-04-28T14:50:45.190Z,41696
2018-04-28T14:51:55.359Z,39200
2018-04-28T14:53:05.514Z,47104
2018-04-28T14:54:15.732Z,41920
2018-04-28T14:55:25.538Z,45728
2018-04-28T14:56:35.726Z,43840
2018-04-28T14:57:45.931Z,43488
2018-04-28T14:58:56.102Z,51968
2018-04-28T15:00:06.275Z,49344
2018-04-28T15:01:16.683Z,23584
2018-04-28T15:02:27.001Z,11400
2018-04-28T15:03:37.158Z,11068
2018-04-28T15:04:48.307Z,23200
2018-04-28T15:05:58.204Z,27936
2018-04-28T15:07:08.164Z,35392
2018-04-28T15:08:18.355Z,40512
2018-04-28T15:09:28.255Z,36800
2018-04-28T15:10:38.444Z,27872
2018-04-28T15:11:48.623Z,12460
2018-04-28T15:12:58.876Z,11208
2018-04-28T15:14:09.101Z,11220
2018-04-28T15:15:19.310Z,15808
2018-04-28T15:16:29.473Z,18144
2018-04-28T15:17:39.835Z,13596
2018-04-28T15:18:49.980Z,11744
2018-04-28T15:20:00.215Z,11576
2018-04-28T15:21:10.026Z,9352
2018-04-28T15:22:20.173Z,9012
2018-04-28T15:23:30.322Z,9000
2018-04-28T15:24:40.242Z,9392
2018-04-28T15:25:50.457Z,9556
2018-04-28T15:27:00.436Z,8984
2018-04-28T15:28:10.709Z,8772
2018-04-28T15:29:20.893Z,8628
2018-04-28T15:30:30.919Z,8512
2018-04-28T15:31:41.086Z,9908
2018-04-28T15:32:51.382Z,11176
2018-04-28T15:34:01.534Z,12576
2018-04-28T15:35:11.318Z,15040
2018-04-28T15:36:21.480Z,15872
2018-04-28T15:37:32.628Z,13592
2018-04-28T15:38:42.809Z,12520
2018-04-28T15:39:53.074Z,11172
2018-04-28T15:41:03.279Z,10048
2018-04-28T15:42:13.597Z,9088